createdAt,value
2023-04-15T00:01:12.153Z,9.30
2023-04-15T00:03:39.807Z,9.30
2023-04-15T00:06:07.045Z,9.20
2023-04-15T00:08:36.210Z,9.20
2023-04-15T00:11:05.922Z,9.20
2023-04-15T00:13:34.311Z,9.30
2023-04-15T00:16:02.349Z,9.30
2023-04-15T00:18:30.063Z,9.30
2023-04-15T00:20:57.241Z,9.20
2023-04-15T00:23:24.417Z,9.20
2023-04-15T00:25:52.147Z,9.20
2023-04-15T00:28:19.363Z,9.10
2023-04-15T00:30:46.426Z,9.10
2023-04-15T00:33:14.280Z,9.00
2023-04-15T00:35:41.561Z,9.00
2023-04-15T00:38:09.161Z,9.00
2023-04-15T00:40:36.299Z,8.90
2023-04-15T00:43:04.403Z,8.90
2023-04-15T00:45:31.975Z,8.80
2023-04-15T00:47:59.338Z,8.90
2023-04-15T00:50:26.410Z,8.80
2023-04-15T00:52:53.551Z,8.90
2023-04-15T00:55:21.018Z,8.90
2023-04-15T00:57:48.720Z,8.80
2023-04-15T01:00:16.687Z,8.80
2023-04-15T01:02:44.076Z,8.60
2023-04-15T01:05:11.988Z,8.50
2023-04-15T01:07:39.784Z,8.50
2023-04-15T01:10:08.241Z,8.50
2023-04-15T01:12:36.078Z,8.50
2023-04-15T01:15:06.647Z,8.40
2023-04-15T01:17:33.970Z,8.50
2023-04-15T01:20:01.244Z,8.50
2023-04-15T01:22:31.603Z,8.50
2023-04-15T01:25:10.249Z,8.50
2023-04-15T01:27:41.012Z,8.50
2023-04-15T01:30:09.247Z,8.50
2023-04-15T01:32:36.984Z,8.40
2023-04-15T01:35:04.178Z,8.40
2023-04-15T01:37:31.406Z,8.40
2023-04-15T01:39:58.591Z,8.30
2023-04-15T01:42:25.643Z,8.30
2023-04-15T01:44:52.809Z,8.20
2023-04-15T01:47:22.769Z,8.10
2023-04-15T01:49:52.830Z,8.00
2023-04-15T01:52:19.915Z,8.00
2023-04-15T01:54:47.222Z,7.90
2023-04-15T01:57:14.269Z,7.90
2023-04-15T01:59:42.325Z,7.90
2023-04-15T02:02:09.481Z,7.90
2023-04-15T02:04:36.538Z,7.80
2023-04-15T02:07:06.162Z,7.80
2023-04-15T02:09:33.283Z,7.80
2023-04-15T02:12:00.856Z,7.80
2023-04-15T02:14:28.989Z,7.80
2023-04-15T02:16:58.204Z,7.80
2023-04-15T02:19:25.377Z,7.80
2023-04-15T02:21:52.426Z,7.80
2023-04-15T02:24:19.584Z,7.80
2023-04-15T02:26:46.850Z,7.70
2023-04-15T02:29:18.600Z,7.60
2023-04-15T02:31:45.988Z,7.50
2023-04-15T02:34:14.483Z,7.50
2023-04-15T02:36:45.776Z,7.50
2023-04-15T02:39:14.919Z,7.40
2023-04-15T02:41:46.793Z,7.40
2023-04-15T02:44:14.721Z,7.40
2023-04-15T02:46:42.072Z,7.40
2023-04-15T02:49:09.078Z,7.40
2023-04-15T02:51:36.615Z,7.50
2023-04-15T02:54:07.091Z,7.40
2023-04-15T02:56:34.354Z,7.40
2023-04-15T02:59:02.079Z,7.40
2023-04-15T03:01:43.466Z,7.40
2023-04-15T03:04:11.842Z,7.40
2023-04-15T03:06:39.239Z,7.30
2023-04-15T03:09:08.950Z,7.30
2023-04-15T03:11:40.781Z,7.30
2023-04-15T03:14:09.880Z,7.20
2023-04-15T03:16:40.970Z,7.30
2023-04-15T03:19:08.275Z,7.30
2023-04-15T03:21:35.525Z,7.30
2023-04-15T03:24:03.228Z,7.20
2023-04-15T03:26:31.773Z,7.10
2023-04-15T03:29:02.651Z,7.10
2023-04-15T03:36:26.442Z,7.00
2023-04-15T03:49:31.934Z,7.00
2023-04-15T03:58:46.640Z,7.00
2023-04-15T04:11:10.313Z,7.00
2023-04-15T04:18:28.371Z,7.00
2023-04-15T04:20:55.639Z,7.00
2023-04-15T04:23:22.896Z,7.00
2023-04-15T04:39:59.802Z,7.10
2023-04-15T04:42:26.967Z,7.20
2023-04-15T04:44:54.090Z,7.20
2023-04-15T04:47:21.436Z,7.20
2023-04-15T04:49:48.561Z,7.20
2023-04-15T04:52:15.908Z,7.20
2023-04-15T04:54:44.268Z,7.30
2023-04-15T04:57:13.613Z,7.30
2023-04-15T05:04:34.724Z,7.50
2023-04-15T05:30:38.293Z,8.00
2023-04-15T05:37:44.364Z,8.30
2023-04-15T05:40:12.029Z,8.30
2023-04-15T05:42:38.985Z,8.40
2023-04-15T05:45:09.134Z,8.50
2023-04-15T05:47:37.771Z,8.50
2023-04-15T05:50:05.315Z,8.60
2023-04-15T05:52:32.883Z,8.60
2023-04-15T05:54:59.862Z,8.70
2023-04-15T05:57:27.081Z,8.80
2023-04-15T05:59:54.138Z,8.90
2023-04-15T06:02:21.288Z,9.00
2023-04-15T06:04:48.697Z,9.10
2023-04-15T06:07:15.826Z,9.20
2023-04-15T06:10:12.982Z,9.30
2023-04-15T06:14:19.680Z,9.40
2023-04-15T06:16:54.414Z,9.50
2023-04-15T06:19:21.511Z,9.70
2023-04-15T06:22:07.802Z,9.80
2023-04-15T06:24:37.094Z,10.00
2023-04-15T06:27:13.018Z,10.10
2023-04-15T06:29:40.011Z,10.30
2023-04-15T06:32:07.218Z,10.40
2023-04-15T06:34:34.324Z,10.50
2023-04-15T06:37:06.714Z,10.60
2023-04-15T06:39:45.001Z,10.80
2023-04-15T06:42:14.602Z,10.80
2023-04-15T06:45:03.902Z,11.00
2023-04-15T06:47:33.706Z,11.10
2023-04-15T06:50:04.803Z,11.20
2023-04-15T06:52:54.510Z,11.30
2023-04-15T06:55:42.304Z,11.40
2023-04-15T06:58:09.788Z,11.50
2023-04-15T07:00:45.829Z,11.50
2023-04-15T07:03:14.131Z,11.50
2023-04-15T07:05:41.568Z,11.70
2023-04-15T07:08:09.084Z,11.80
2023-04-15T07:10:36.421Z,11.80
2023-04-15T07:13:08.904Z,11.90
2023-04-15T07:15:36.559Z,12.00
2023-04-15T07:18:06.945Z,12.00
2023-04-15T07:20:34.029Z,12.00
2023-04-15T07:23:01.096Z,12.20
2023-04-15T07:25:28.264Z,12.20
2023-04-15T07:27:57.721Z,12.10
2023-04-15T07:30:25.062Z,12.10
2023-04-15T07:32:55.454Z,12.10
2023-04-15T07:35:22.658Z,12.00
2023-04-15T07:37:59.965Z,12.10
2023-04-15T07:40:27.270Z,12.10
2023-04-15T07:42:54.424Z,12.10
2023-04-15T07:45:21.806Z,12.00
2023-04-15T07:47:48.859Z,12.10
2023-04-15T07:50:17.304Z,12.30
2023-04-15T07:52:44.568Z,12.40
2023-04-15T07:55:11.560Z,12.40
2023-04-15T07:57:38.462Z,12.70
2023-04-15T08:00:07.678Z,12.80
2023-04-15T08:02:44.796Z,12.80
2023-04-15T08:05:13.291Z,12.90
2023-04-15T08:07:40.719Z,13.00
2023-04-15T08:10:08.640Z,13.20
2023-04-15T08:12:35.939Z,13.20
2023-04-15T08:15:03.392Z,13.30
2023-04-15T08:17:30.397Z,13.30
2023-04-15T08:19:57.354Z,13.40
2023-04-15T08:22:24.437Z,13.40
2023-04-15T08:24:51.455Z,13.50
2023-04-15T08:27:18.662Z,13.50
2023-04-15T08:29:45.780Z,13.50
2023-04-15T08:32:12.826Z,13.60
2023-04-15T08:34:39.810Z,13.60
2023-04-15T08:37:07.077Z,13.60
2023-04-15T08:39:33.963Z,13.60
2023-04-15T08:42:04.875Z,13.80
2023-04-15T08:44:35.056Z,13.90
2023-04-15T08:47:03.325Z,13.80
2023-04-15T08:49:30.704Z,13.80
2023-04-15T08:51:59.614Z,14.00
2023-04-15T08:54:28.184Z,14.10
2023-04-15T08:56:55.411Z,14.10
2023-04-15T08:59:22.651Z,14.00
2023-04-15T09:01:53.718Z,13.60
2023-04-15T09:04:20.791Z,13.50
2023-04-15T09:06:47.822Z,13.50
2023-04-15T09:09:15.057Z,13.60
2023-04-15T09:11:43.135Z,13.70
2023-04-15T09:14:12.970Z,13.70
2023-04-15T09:16:59.908Z,13.70
2023-04-15T09:19:27.943Z,13.60
2023-04-15T09:21:59.374Z,13.50
2023-04-15T09:24:37.496Z,13.50
2023-04-15T09:27:05.217Z,13.50
2023-04-15T09:29:32.398Z,13.70
2023-04-15T09:32:21.349Z,14.00
2023-04-15T09:34:48.498Z,14.30
2023-04-15T09:37:32.044Z,14.50
2023-04-15T09:39:59.743Z,14.40
2023-04-15T09:42:27.458Z,14.60
2023-04-15T09:44:55.957Z,14.80
2023-04-15T09:47:30.503Z,14.70
2023-04-15T09:50:02.388Z,14.50
2023-04-15T09:52:32.853Z,14.40
2023-04-15T09:55:00.953Z,14.40
2023-04-15T09:57:38.043Z,14.30
2023-04-15T10:00:08.209Z,14.30
2023-04-15T10:02:36.987Z,14.30
2023-04-15T10:05:04.692Z,14.20
2023-04-15T10:07:32.523Z,14.20
2023-04-15T10:10:04.592Z,14.30
2023-04-15T10:12:33.532Z,14.70
2023-04-15T10:15:07.952Z,14.80
2023-04-15T10:17:37.360Z,14.80
2023-04-15T10:20:05.956Z,14.60
2023-04-15T10:22:33.422Z,14.60
2023-04-15T10:25:01.324Z,14.50
2023-04-15T10:27:29.035Z,14.50
2023-04-15T10:30:04.129Z,14.50
2023-04-15T10:32:31.798Z,14.40
2023-04-15T10:34:59.480Z,14.30
2023-04-15T10:37:44.636Z,14.40
2023-04-15T10:40:38.899Z,14.80
2023-04-15T10:43:05.988Z,15.10
2023-04-15T10:45:37.167Z,15.40
2023-04-15T10:48:08.539Z,15.60
2023-04-15T10:50:39.532Z,15.70
2023-04-15T10:53:10.784Z,15.70
2023-04-15T10:55:37.784Z,15.80
2023-04-15T10:58:04.911Z,15.80
2023-04-15T11:00:33.177Z,15.60
2023-04-15T11:03:09.327Z,15.10
2023-04-15T11:05:39.626Z,14.70
2023-04-15T11:13:17.298Z,14.50
2023-04-15T11:15:45.427Z,14.60
2023-04-15T11:23:13.932Z,14.80
2023-04-15T11:25:41.987Z,14.90
2023-04-15T11:28:08.913Z,14.80
2023-04-15T11:32:08.934Z,14.70
2023-04-15T11:43:58.335Z,14.90
2023-04-15T11:46:32.026Z,15.00
2023-04-15T11:49:00.209Z,15.10
2023-04-15T11:51:32.249Z,15.10
2023-04-15T11:53:59.161Z,15.10
2023-04-15T11:56:27.698Z,15.20
2023-04-15T11:59:13.263Z,15.20
2023-04-15T12:01:42.360Z,15.40
2023-04-15T12:04:13.714Z,15.40
2023-04-15T12:06:41.338Z,15.30
2023-04-15T12:09:14.998Z,15.20
2023-04-15T12:11:58.327Z,15.20
2023-04-15T12:14:30.257Z,15.30
2023-04-15T12:17:03.048Z,15.40
2023-04-15T12:19:45.661Z,15.50
2023-04-15T12:22:16.933Z,15.50
2023-04-15T12:24:48.174Z,15.60
2023-04-15T12:27:16.970Z,15.90
2023-04-15T12:29:44.366Z,16.10
2023-04-15T12:32:21.026Z,16.20
2023-04-15T12:34:53.211Z,16.10
2023-04-15T12:37:20.388Z,16.10
2023-04-15T12:39:49.486Z,15.90
2023-04-15T12:42:17.839Z,16.10
2023-04-15T12:44:47.729Z,16.20
2023-04-15T12:47:15.055Z,16.20
2023-04-15T12:49:42.286Z,16.30
2023-04-15T12:52:09.297Z,16.30
2023-04-15T12:54:36.467Z,16.20
2023-04-15T12:57:06.836Z,16.10
2023-04-15T12:59:34.698Z,16.10
2023-04-15T13:02:05.555Z,16.10
2023-04-15T13:04:32.819Z,16.10
2023-04-15T13:06:59.854Z,16.00
2023-04-15T13:09:27.284Z,16.00
2023-04-15T13:11:54.604Z,16.00
2023-04-15T13:14:21.791Z,15.80
2023-04-15T13:16:48.787Z,15.60
2023-04-15T13:19:15.971Z,15.40
2023-04-15T13:21:43.022Z,15.10
2023-04-15T13:24:10.299Z,14.90
2023-04-15T13:26:38.166Z,14.90
2023-04-15T13:29:06.069Z,14.90
2023-04-15T13:31:33.049Z,14.80
2023-04-15T13:34:00.070Z,14.80
2023-04-15T13:36:27.502Z,14.60
2023-04-15T13:38:54.787Z,14.40
2023-04-15T13:41:24.866Z,14.30
2023-04-15T13:43:51.791Z,14.10
2023-04-15T13:46:18.722Z,13.90
2023-04-15T13:48:45.818Z,13.80
2023-04-15T13:51:12.706Z,13.60
2023-04-15T13:53:39.962Z,13.60
2023-04-15T13:56:08.459Z,13.50
2023-04-15T13:58:36.333Z,13.50
2023-04-15T14:01:05.848Z,13.40
2023-04-15T14:03:35.384Z,13.40
2023-04-15T14:06:02.710Z,13.30
2023-04-15T14:08:31.194Z,13.10
2023-04-15T14:10:58.199Z,13.10
2023-04-15T14:13:25.366Z,13.00
2023-04-15T14:15:52.307Z,13.00
2023-04-15T14:18:19.298Z,12.90
2023-04-15T14:20:46.529Z,12.80
2023-04-15T14:23:13.491Z,12.60
2023-04-15T14:25:40.678Z,12.60
2023-04-15T14:28:07.699Z,12.60
2023-04-15T14:30:35.327Z,12.70
2023-04-15T14:33:06.064Z,12.60
2023-04-15T14:35:33.376Z,12.70
2023-04-15T14:38:00.418Z,12.70
2023-04-15T14:40:27.514Z,12.80
2023-04-15T14:42:54.500Z,13.00
2023-04-15T14:45:21.590Z,13.10
2023-04-15T14:47:48.863Z,13.20
2023-04-15T14:50:16.153Z,13.20
2023-04-15T14:52:43.228Z,13.40
2023-04-15T14:55:13.956Z,13.50
2023-04-15T14:57:42.495Z,13.60
2023-04-15T15:00:13.752Z,13.80
2023-04-15T15:02:44.009Z,13.90
2023-04-15T15:05:12.428Z,14.00
2023-04-15T15:07:43.807Z,14.00
2023-04-15T15:10:13.567Z,14.10
2023-04-15T15:12:40.817Z,14.10
2023-04-15T15:17:54.026Z,14.00
2023-04-15T15:20:26.349Z,14.00
2023-04-15T15:22:57.941Z,13.90
2023-04-15T15:25:25.622Z,14.00
2023-04-15T15:27:52.930Z,14.00
2023-04-15T15:30:20.775Z,14.00
2023-04-15T15:32:48.495Z,14.10
2023-04-15T15:35:16.595Z,14.30
2023-04-15T15:37:44.204Z,14.50
2023-04-15T15:40:12.532Z,14.50
2023-04-15T15:42:42.268Z,14.70
2023-04-15T15:45:10.624Z,14.80
2023-04-15T15:47:42.157Z,14.80
2023-04-15T15:50:10.210Z,14.80
2023-04-15T15:52:40.992Z,14.90
2023-04-15T15:55:09.305Z,14.90
2023-04-15T15:57:39.658Z,14.90
2023-04-15T16:00:12.014Z,15.00
2023-04-15T16:03:05.187Z,15.00
2023-04-15T16:05:29.563Z,14.80
2023-04-15T16:07:57.620Z,14.60
2023-04-15T16:10:27.019Z,14.50
2023-04-15T16:12:58.810Z,14.50
2023-04-15T16:15:32.831Z,14.40
2023-04-15T16:18:06.039Z,14.30
2023-04-15T16:25:17.010Z,14.10
2023-04-15T16:32:46.664Z,13.80
2023-04-15T16:52:17.963Z,13.00
2023-04-15T17:04:43.294Z,12.30
2023-04-15T17:13:00.644Z,12.00
2023-04-15T17:15:34.337Z,11.80
2023-04-15T17:18:02.208Z,11.60
2023-04-15T17:20:31.149Z,11.60
2023-04-15T17:22:58.917Z,11.50
2023-04-15T17:45:53.692Z,11.50
2023-04-15T18:02:25.937Z,11.70
2023-04-15T18:04:54.086Z,11.70
2023-04-15T18:24:45.281Z,11.50
2023-04-15T18:27:17.924Z,11.20
2023-04-15T18:29:53.832Z,11.10
2023-04-15T19:02:14.107Z,11.10
2023-04-15T19:04:44.512Z,11.20
2023-04-15T19:07:13.698Z,11.20
2023-04-15T19:09:42.592Z,11.20
2023-04-15T19:12:12.544Z,11.10
2023-04-15T19:14:42.197Z,11.20
2023-04-15T19:17:09.537Z,11.20
2023-04-15T19:19:36.901Z,11.20
2023-04-15T19:22:08.446Z,11.20
2023-04-15T19:24:39.847Z,11.20
2023-04-15T19:27:07.108Z,11.10
2023-04-15T19:29:34.423Z,11.10
2023-04-15T19:32:01.778Z,11.10
2023-04-15T19:34:32.106Z,11.10
2023-04-15T19:36:59.248Z,11.10
2023-04-15T19:39:26.601Z,11.10
2023-04-15T19:41:55.449Z,11.10
2023-04-15T19:44:25.083Z,11.10
2023-04-15T19:46:53.774Z,11.10
2023-04-15T19:49:21.452Z,11.10
2023-04-15T19:51:50.504Z,11.00
2023-04-15T19:54:28.052Z,11.00
2023-04-15T20:00:40.418Z,10.90
2023-04-15T20:06:40.469Z,10.80
2023-04-15T20:16:23.820Z,10.80
2023-04-15T20:18:54.576Z,10.80
2023-04-15T20:21:24.495Z,10.70
2023-04-15T20:28:08.898Z,10.70
2023-04-15T20:30:43.126Z,10.60
2023-04-15T20:33:14.916Z,10.60
2023-04-15T20:35:46.874Z,10.60
2023-04-15T20:38:17.932Z,10.50
2023-04-15T20:40:45.004Z,10.60
2023-04-15T20:43:12.067Z,10.50
2023-04-15T20:45:39.279Z,10.60
2023-04-15T20:48:06.515Z,10.60
2023-04-15T20:50:33.593Z,10.60
2023-04-15T20:53:00.936Z,10.60
2023-04-15T20:55:30.212Z,10.60
2023-04-15T20:57:58.404Z,10.70
2023-04-15T21:00:25.514Z,10.80
2023-04-15T21:02:52.657Z,10.70
2023-04-15T21:05:19.830Z,10.70
2023-04-15T21:07:46.809Z,10.70
2023-04-15T21:10:16.824Z,10.70
2023-04-15T21:12:43.921Z,10.70
2023-04-15T21:15:14.007Z,10.70
2023-04-15T21:17:41.739Z,10.70
2023-04-15T21:20:09.264Z,10.70
2023-04-15T21:22:36.444Z,10.70
2023-04-15T21:25:03.700Z,10.70
2023-04-15T21:27:30.754Z,10.80
2023-04-15T21:29:57.713Z,10.80
2023-04-15T21:32:24.834Z,10.80
2023-04-15T21:34:51.827Z,10.70
2023-04-15T21:37:18.891Z,10.70
2023-04-15T21:39:45.878Z,10.70
2023-04-15T21:42:12.924Z,10.70
2023-04-15T21:44:39.997Z,10.70
2023-04-15T21:47:06.996Z,10.70
2023-04-15T21:49:34.110Z,10.60
2023-04-15T21:52:03.376Z,10.70
2023-04-15T21:54:31.195Z,10.60
2023-04-15T21:56:58.297Z,10.60
2023-04-15T21:59:25.313Z,10.60
2023-04-15T22:01:52.477Z,10.60
2023-04-15T22:04:19.624Z,10.60
2023-04-15T22:06:47.059Z,10.70
2023-04-15T22:09:14.577Z,10.60
2023-04-15T22:11:42.032Z,10.70
2023-04-15T22:14:09.374Z,10.70
2023-04-15T22:16:36.442Z,10.70
2023-04-15T22:19:05.858Z,10.60
2023-04-15T22:21:32.997Z,10.50
2023-04-15T22:24:37.250Z,10.50
2023-04-15T22:26:47.062Z,10.40
2023-04-15T22:29:14.035Z,10.40
2023-04-15T22:31:41.183Z,10.40
2023-04-15T22:34:08.693Z,10.30
2023-04-15T22:36:35.942Z,10.20
2023-04-15T22:39:03.074Z,10.10
2023-04-15T22:41:30.313Z,10.00
2023-04-15T22:43:57.282Z,9.90
2023-04-15T22:46:24.341Z,9.90
2023-04-15T22:48:51.385Z,9.90
2023-04-15T22:51:22.742Z,9.90
2023-04-15T22:53:50.501Z,9.80
2023-04-15T22:56:21.880Z,9.80
2023-04-15T22:58:50.087Z,9.70
2023-04-15T23:01:17.975Z,9.70
2023-04-15T23:03:56.490Z,9.70
2023-04-15T23:06:25.640Z,9.70
2023-04-15T23:08:54.521Z,9.70
2023-04-15T23:11:22.063Z,9.60
2023-04-15T23:13:50.761Z,9.50
2023-04-15T23:16:17.914Z,9.50
2023-04-15T23:18:45.040Z,9.50
2023-04-15T23:21:12.093Z,9.50
2023-04-15T23:23:39.195Z,9.30
2023-04-15T23:26:06.359Z,9.30
2023-04-15T23:28:33.406Z,9.20
2023-04-15T23:31:00.695Z,9.20
2023-04-15T23:33:32.691Z,9.20
2023-04-15T23:35:59.759Z,9.10
2023-04-15T23:38:26.837Z,9.00
2023-04-15T23:40:53.999Z,9.00
2023-04-15T23:43:21.005Z,9.00
2023-04-15T23:45:48.181Z,8.90
2023-04-15T23:48:15.187Z,8.90
2023-04-15T23:50:42.338Z,8.80
2023-04-15T23:53:09.354Z,8.70
2023-04-15T23:55:36.504Z,8.70
2023-04-15T23:58:06.082Z,8.70
